createdAt,value
2023-03-15T00:00:16.067Z,97260.80
2023-03-15T00:03:24.855Z,97271.80
2023-03-15T00:06:34.719Z,97274.00
2023-03-15T00:09:42.823Z,97284.40
2023-03-15T00:12:50.800Z,97288.40
2023-03-15T00:16:03.621Z,97295.40
2023-03-15T00:19:12.799Z,97303.20
2023-03-15T00:22:23.440Z,97295.60
2023-03-15T00:25:31.523Z,97295.60
2023-03-15T00:28:40.364Z,97294.00
2023-03-15T00:31:48.566Z,97291.80
2023-03-15T00:34:56.847Z,97301.60
2023-03-15T00:38:05.268Z,97311.00
2023-03-15T00:41:16.280Z,97308.40
2023-03-15T00:44:24.747Z,97312.60
2023-03-15T00:47:33.048Z,97319.60
2023-03-15T00:50:40.749Z,97320.60
2023-03-15T00:53:50.978Z,97320.00
2023-03-15T00:56:59.285Z,97319.00
2023-03-15T01:00:09.980Z,97324.80
2023-03-15T01:03:18.956Z,97319.20
2023-03-15T01:06:29.734Z,97322.80
2023-03-15T01:09:37.673Z,97321.20
2023-03-15T01:12:46.282Z,97322.00
2023-03-15T01:15:54.044Z,97325.60
2023-03-15T01:19:02.096Z,97314.40
2023-03-15T01:22:10.101Z,97317.40
2023-03-15T01:25:18.741Z,97311.80
2023-03-15T01:28:26.613Z,97311.40
2023-03-15T01:31:35.976Z,97314.20
2023-03-15T01:34:44.262Z,97305.60
2023-03-15T01:37:55.650Z,97306.00
2023-03-15T01:41:03.901Z,97301.00
2023-03-15T01:44:17.234Z,97295.00
2023-03-15T01:47:27.158Z,97300.20
2023-03-15T01:50:33.476Z,97299.00
2023-03-15T01:53:44.805Z,97304.00
2023-03-15T01:57:00.673Z,97299.20
2023-03-15T02:00:13.962Z,97306.60
2023-03-15T02:03:27.338Z,97302.00
2023-03-15T02:06:36.948Z,97299.40
2023-03-15T02:09:55.663Z,97295.80
2023-03-15T02:13:05.332Z,97286.60
2023-03-15T02:16:14.405Z,97292.20
2023-03-15T02:19:43.219Z,97302.20
2023-03-15T02:22:57.638Z,97310.40
2023-03-15T02:26:19.416Z,97319.00
2023-03-15T02:29:30.140Z,97318.40
2023-03-15T02:32:38.192Z,97332.60
2023-03-15T02:35:46.363Z,97328.60
2023-03-15T02:38:56.069Z,97331.60
2023-03-15T02:42:04.054Z,97335.20
2023-03-15T02:45:14.097Z,97336.20
2023-03-15T02:48:23.043Z,97330.80
2023-03-15T02:51:34.320Z,97334.00
2023-03-15T02:54:43.589Z,97336.80
2023-03-15T02:57:51.851Z,97336.20
2023-03-15T03:00:59.721Z,97343.60
2023-03-15T03:04:08.373Z,97341.60
2023-03-15T03:07:16.532Z,97334.20
2023-03-15T03:10:25.003Z,97340.40
2023-03-15T03:13:32.987Z,97336.80
2023-03-15T03:16:40.769Z,97344.80
2023-03-15T03:19:48.991Z,97343.20
2023-03-15T03:22:57.096Z,97340.40
2023-03-15T03:26:05.509Z,97353.60
2023-03-15T03:29:16.900Z,97347.60
2023-03-15T03:32:24.918Z,97338.60
2023-03-15T03:35:34.341Z,97343.80
2023-03-15T03:38:42.982Z,97343.40
2023-03-15T03:41:51.075Z,97339.20
2023-03-15T03:44:59.058Z,97341.20
2023-03-15T03:48:09.105Z,97321.00
2023-03-15T03:51:16.768Z,97315.60
2023-03-15T03:54:24.801Z,97320.20
2023-03-15T03:57:33.281Z,97320.60
2023-03-15T04:00:41.817Z,97322.20
2023-03-15T04:03:50.093Z,97335.00
2023-03-15T04:06:57.831Z,97336.40
2023-03-15T04:10:06.324Z,97336.40
2023-03-15T04:13:14.154Z,97332.00
2023-03-15T04:16:24.818Z,97334.20
2023-03-15T04:19:33.602Z,97336.40
2023-03-15T04:22:41.908Z,97335.60
2023-03-15T04:25:55.290Z,97347.40
2023-03-15T04:29:04.620Z,97343.20
2023-03-15T04:32:13.713Z,97347.40
2023-03-15T04:35:28.054Z,97353.80
2023-03-15T04:38:35.817Z,97364.60
2023-03-15T04:41:43.818Z,97362.80
2023-03-15T04:44:51.634Z,97371.00
2023-03-15T04:48:01.465Z,97379.20
2023-03-15T04:51:08.029Z,97379.40
2023-03-15T04:54:15.780Z,97397.40
2023-03-15T04:57:23.914Z,97404.80
2023-03-15T05:00:31.791Z,97414.60
2023-03-15T05:03:39.898Z,97426.00
2023-03-15T05:06:47.726Z,97435.80
2023-03-15T05:09:55.996Z,97447.60
2023-03-15T05:13:04.318Z,97455.20
2023-03-15T05:16:12.043Z,97461.00
2023-03-15T05:19:20.339Z,97463.40
2023-03-15T05:22:28.309Z,97473.40
2023-03-15T05:25:38.375Z,97469.00
2023-03-15T05:28:46.500Z,97470.00
2023-03-15T05:31:55.365Z,97463.20
2023-03-15T05:35:03.381Z,97461.40
2023-03-15T05:38:14.564Z,97455.80
2023-03-15T05:41:22.539Z,97446.20
2023-03-15T05:44:30.722Z,97453.20
2023-03-15T05:47:39.168Z,97451.00
2023-03-15T05:50:47.590Z,97449.40
2023-03-15T05:53:55.411Z,97446.80
2023-03-15T05:57:03.786Z,97439.40
2023-03-15T06:00:16.261Z,97442.40
2023-03-15T06:03:24.254Z,97440.40
2023-03-15T06:06:33.961Z,97442.20
2023-03-15T06:09:42.662Z,97452.00
2023-03-15T06:12:55.479Z,97455.60
2023-03-15T06:16:03.524Z,97455.80
2023-03-15T06:19:11.436Z,97457.80
2023-03-15T06:22:20.799Z,97462.60
2023-03-15T06:25:29.274Z,97460.60
2023-03-15T06:28:37.793Z,97466.60
2023-03-15T06:31:46.020Z,97468.00
2023-03-15T06:34:54.337Z,97473.80
2023-03-15T06:38:02.136Z,97471.80
2023-03-15T06:41:12.691Z,97478.20
2023-03-15T06:44:21.433Z,97479.00
2023-03-15T06:47:29.848Z,97490.80
2023-03-15T06:50:46.985Z,97496.00
2023-03-15T06:53:56.127Z,97493.60
2023-03-15T06:57:04.242Z,97484.00
2023-03-15T07:00:18.268Z,97481.00
2023-03-15T07:03:26.094Z,97484.20
2023-03-15T07:06:34.674Z,97483.40
2023-03-15T07:09:43.321Z,97494.00
2023-03-15T07:12:51.446Z,97494.00
2023-03-15T07:15:59.960Z,97502.00
2023-03-15T07:19:08.312Z,97501.80
2023-03-15T07:22:16.796Z,97505.60
2023-03-15T07:25:26.124Z,97519.80
2023-03-15T07:28:34.058Z,97516.60
2023-03-15T07:31:41.909Z,97517.20
2023-03-15T07:34:49.797Z,97525.60
2023-03-15T07:37:58.455Z,97522.80
2023-03-15T07:41:09.461Z,97530.40
2023-03-15T07:44:18.507Z,97533.80
2023-03-15T07:47:26.223Z,97543.00
2023-03-15T07:50:34.812Z,97540.00
2023-03-15T07:53:42.391Z,97541.80
2023-03-15T07:57:42.753Z,97531.80
2023-03-15T08:00:51.233Z,97537.80
2023-03-15T08:03:59.183Z,97552.00
2023-03-15T08:07:07.100Z,97551.20
2023-03-15T08:10:16.439Z,97549.40
2023-03-15T08:13:24.367Z,97551.80
2023-03-15T08:16:32.329Z,97561.00
2023-03-15T08:19:40.628Z,97561.00
2023-03-15T08:22:50.217Z,97566.60
2023-03-15T08:25:58.476Z,97568.80
2023-03-15T08:29:28.006Z,97569.60
2023-03-15T08:32:35.936Z,97570.40
2023-03-15T08:35:44.342Z,97576.60
2023-03-15T08:38:52.818Z,97583.40
2023-03-15T08:42:01.469Z,97591.40
2023-03-15T08:45:11.954Z,97587.20
2023-03-15T08:48:19.916Z,97591.80
2023-03-15T08:51:28.268Z,97597.20
2023-03-15T08:54:36.570Z,97600.40
2023-03-15T08:57:45.204Z,97613.00
2023-03-15T09:00:54.961Z,97622.40
2023-03-15T09:04:04.427Z,97631.40
2023-03-15T09:07:12.601Z,97632.40
2023-03-15T09:10:22.305Z,97639.20
2023-03-15T09:13:31.051Z,97643.00
2023-03-15T09:16:39.071Z,97640.60
2023-03-15T09:19:47.118Z,97643.60
2023-03-15T09:22:59.901Z,97646.60
2023-03-15T09:26:08.147Z,97643.80
2023-03-15T09:29:16.005Z,97647.40
2023-03-15T09:32:23.890Z,97655.00
2023-03-15T09:35:32.218Z,97660.00
2023-03-15T09:38:42.198Z,97663.20
2023-03-15T09:41:56.412Z,97665.40
2023-03-15T09:45:22.070Z,97664.80
2023-03-15T09:48:38.050Z,97674.20
2023-03-15T09:51:52.261Z,97677.60
2023-03-15T09:55:06.624Z,97678.40
2023-03-15T09:58:21.136Z,97678.60
2023-03-15T10:01:36.577Z,97681.00
2023-03-15T10:04:49.671Z,97673.20
2023-03-15T10:08:00.163Z,97673.80
2023-03-15T10:11:22.691Z,97678.20
2023-03-15T10:14:59.249Z,97682.00
2023-03-15T10:18:42.497Z,97686.20
2023-03-15T10:22:02.996Z,97679.40
2023-03-15T10:25:20.293Z,97688.80
2023-03-15T10:28:34.820Z,97679.40
2023-03-15T10:31:48.704Z,97685.40
2023-03-15T10:35:00.327Z,97686.20
2023-03-15T10:38:17.401Z,97689.20
2023-03-15T10:41:43.062Z,97699.40
2023-03-15T10:44:51.305Z,97699.40
2023-03-15T10:48:01.061Z,97710.80
2023-03-15T10:51:17.744Z,97703.80
2023-03-15T10:54:27.909Z,97696.60
2023-03-15T10:57:41.530Z,97701.80
2023-03-15T11:00:55.167Z,97706.80
2023-03-15T11:04:19.074Z,97713.60
2023-03-15T11:07:27.473Z,97712.60
2023-03-15T11:10:39.674Z,97718.40
2023-03-15T11:14:02.590Z,97720.60
2023-03-15T11:17:19.403Z,97730.20
2023-03-15T11:20:36.086Z,97732.60
2023-03-15T11:23:48.673Z,97736.60
2023-03-15T11:27:01.779Z,97747.40
2023-03-15T11:30:18.546Z,97749.00
2023-03-15T11:33:44.749Z,97744.60
2023-03-15T11:37:07.985Z,97750.80
2023-03-15T11:40:26.673Z,97745.80
2023-03-15T11:43:51.132Z,97747.40
2023-03-15T11:47:06.529Z,97749.80
2023-03-15T11:50:17.905Z,97748.80
2023-03-15T11:53:32.599Z,97751.00
2023-03-15T11:57:07.484Z,97746.20
2023-03-15T12:00:52.885Z,97750.00
2023-03-15T12:04:44.846Z,97758.20
2023-03-15T12:08:25.415Z,97759.40
2023-03-15T12:11:46.125Z,97763.60
2023-03-15T12:15:17.163Z,97772.60
2023-03-15T12:18:46.290Z,97780.00
2023-03-15T12:21:58.304Z,97769.20
2023-03-15T12:25:17.075Z,97765.20
2023-03-15T12:28:31.629Z,97771.80
2023-03-15T12:31:55.632Z,97777.00
2023-03-15T12:35:24.171Z,97776.20
2023-03-15T12:38:42.157Z,97769.60
2023-03-15T12:41:52.664Z,97775.20
2023-03-15T12:45:41.411Z,97775.20
2023-03-15T12:49:12.573Z,97776.40
2023-03-15T12:52:44.329Z,97786.40
2023-03-15T12:55:59.480Z,97788.40
2023-03-15T12:59:23.531Z,97785.60
2023-03-15T13:02:43.224Z,97778.80
2023-03-15T13:06:05.949Z,97778.60
2023-03-15T13:09:27.394Z,97781.40
2023-03-15T13:12:46.439Z,97791.60
2023-03-15T13:16:16.014Z,97804.20
2023-03-15T13:19:28.181Z,97817.80
2023-03-15T13:22:55.593Z,97818.40
2023-03-15T13:26:21.239Z,97826.20
2023-03-15T13:29:33.649Z,97829.00
2023-03-15T13:32:41.775Z,97828.00
2023-03-15T13:35:56.223Z,97836.80
2023-03-15T13:39:11.703Z,97840.80
2023-03-15T13:42:26.051Z,97838.00
2023-03-15T13:45:33.852Z,97838.80
2023-03-15T13:48:46.054Z,97850.40
2023-03-15T13:51:56.505Z,97851.40
2023-03-15T13:55:05.518Z,97859.20
2023-03-15T13:58:14.588Z,97859.20
2023-03-15T14:01:24.438Z,97854.60
2023-03-15T14:04:36.656Z,97861.00
2023-03-15T14:07:48.728Z,97860.80
2023-03-15T14:11:11.518Z,97858.60
2023-03-15T14:14:29.065Z,97864.40
2023-03-15T14:17:37.052Z,97868.20
2023-03-15T14:20:49.718Z,97871.20
2023-03-15T14:23:58.134Z,97873.00
2023-03-15T14:27:14.725Z,97875.80
2023-03-15T14:30:28.191Z,97887.60
2023-03-15T14:33:43.003Z,97886.00
2023-03-15T14:36:54.412Z,97888.80
2023-03-15T14:40:17.459Z,97881.60
2023-03-15T14:43:25.870Z,97888.20
2023-03-15T14:46:34.924Z,97893.80
2023-03-15T14:49:42.799Z,97900.40
2023-03-15T14:52:52.495Z,97911.80
2023-03-15T14:56:00.698Z,97913.20
2023-03-15T14:59:15.791Z,97920.40
2023-03-15T15:02:24.231Z,97920.60
2023-03-15T15:05:35.265Z,97926.20
2023-03-15T15:08:48.555Z,97931.40
2023-03-15T15:11:57.408Z,97925.00
2023-03-15T15:15:11.259Z,97938.20
2023-03-15T15:18:21.027Z,97943.80
2023-03-15T15:21:34.113Z,97946.40
2023-03-15T15:24:42.402Z,97949.60
2023-03-15T15:27:50.735Z,97948.60
2023-03-15T15:30:58.892Z,97956.40
2023-03-15T15:34:06.752Z,97961.40
2023-03-15T15:37:16.279Z,97968.40
2023-03-15T15:40:29.385Z,97972.00
2023-03-15T15:43:37.206Z,97979.60
2023-03-15T15:46:52.378Z,97982.80
2023-03-15T15:50:02.118Z,97984.20
2023-03-15T15:53:16.840Z,97988.60
2023-03-15T15:56:28.437Z,97995.20
2023-03-15T15:59:36.964Z,98001.20
2023-03-15T16:02:45.378Z,98003.60
2023-03-15T16:05:54.410Z,98007.40
2023-03-15T16:09:03.092Z,98005.40
2023-03-15T16:12:19.253Z,98009.20
2023-03-15T16:15:27.700Z,98016.00
2023-03-15T16:18:38.123Z,98021.40
2023-03-15T16:21:51.947Z,98024.60
2023-03-15T16:25:02.332Z,98030.60
2023-03-15T16:28:12.899Z,98035.80
2023-03-15T16:31:23.465Z,98044.40
2023-03-15T16:34:34.587Z,98044.60
2023-03-15T16:37:45.144Z,98051.20
2023-03-15T16:40:54.574Z,98052.60
2023-03-15T16:44:03.263Z,98057.00
2023-03-15T16:47:12.428Z,98064.60
2023-03-15T16:50:21.972Z,98067.60
2023-03-15T16:53:31.686Z,98079.20
2023-03-15T16:56:41.118Z,98084.20
2023-03-15T16:59:50.021Z,98086.20
2023-03-15T17:03:00.275Z,98088.20
2023-03-15T17:06:15.442Z,98089.60
2023-03-15T17:09:25.848Z,98089.40
2023-03-15T17:12:34.482Z,98093.80
2023-03-15T17:15:42.894Z,98098.60
2023-03-15T17:18:51.725Z,98098.80
2023-03-15T17:22:00.063Z,98104.80
2023-03-15T17:25:09.573Z,98104.80
2023-03-15T17:28:19.012Z,98109.80
2023-03-15T17:31:29.175Z,98113.80
2023-03-15T17:34:37.255Z,98116.80
2023-03-15T17:37:45.927Z,98118.20
2023-03-15T17:40:54.696Z,98128.00
2023-03-15T17:44:02.858Z,98136.80
2023-03-15T17:47:13.876Z,98138.80
2023-03-15T17:50:23.210Z,98144.80
2023-03-15T17:53:32.908Z,98139.20
2023-03-15T17:56:41.174Z,98154.40
2023-03-15T17:59:49.232Z,98159.20
2023-03-15T18:02:57.909Z,98158.20
2023-03-15T18:06:06.420Z,98163.20
2023-03-15T18:09:17.061Z,98171.60
2023-03-15T18:12:26.085Z,98173.40
2023-03-15T18:15:35.113Z,98177.20
2023-03-15T18:18:43.776Z,98178.20
2023-03-15T18:21:52.044Z,98183.40
2023-03-15T18:25:00.219Z,98194.80
2023-03-15T18:28:08.404Z,98201.40
2023-03-15T18:31:20.302Z,98211.20
2023-03-15T18:34:28.661Z,98214.40
2023-03-15T18:37:36.984Z,98221.60
2023-03-15T18:40:45.351Z,98227.80
2023-03-15T18:43:54.063Z,98223.80
2023-03-15T18:47:02.163Z,98232.80
2023-03-15T18:50:13.098Z,98238.20
2023-03-15T18:53:21.728Z,98239.20
2023-03-15T18:56:34.597Z,98242.00
2023-03-15T18:59:43.104Z,98246.00
2023-03-15T19:02:51.867Z,98247.00
2023-03-15T19:06:04.034Z,98253.00
2023-03-15T19:09:12.307Z,98259.00
2023-03-15T19:12:20.242Z,98261.80
2023-03-15T19:15:29.368Z,98267.80
2023-03-15T19:18:41.686Z,98266.40
2023-03-15T19:21:49.854Z,98270.40
2023-03-15T19:24:58.002Z,98271.40
2023-03-15T19:28:06.301Z,98276.40
2023-03-15T19:31:14.859Z,98285.00
2023-03-15T19:34:25.049Z,98288.80
2023-03-15T19:41:13.096Z,98298.00
2023-03-15T19:44:22.548Z,98301.60
2023-03-15T19:47:33.183Z,98306.00
2023-03-15T19:50:41.117Z,98305.40
2023-03-15T19:53:49.182Z,98309.40
2023-03-15T19:56:58.879Z,98302.60
2023-03-15T20:00:06.111Z,98303.80
2023-03-15T20:03:14.563Z,98304.40
2023-03-15T20:06:22.615Z,98309.80
2023-03-15T20:09:30.610Z,98316.20
2023-03-15T20:12:42.875Z,98313.20
2023-03-15T20:15:51.062Z,98316.40
2023-03-15T20:18:58.930Z,98329.60
2023-03-15T20:22:07.066Z,98331.60
2023-03-15T20:25:17.349Z,98343.60
2023-03-15T20:28:25.429Z,98347.40
2023-03-15T20:31:33.785Z,98351.60
2023-03-15T20:34:45.185Z,98360.40
2023-03-15T20:37:53.901Z,98353.40
2023-03-15T20:41:02.580Z,98348.80
2023-03-15T20:44:11.631Z,98347.80
2023-03-15T20:47:19.859Z,98352.80
2023-03-15T20:50:28.219Z,98361.20
2023-03-15T20:53:38.496Z,98367.40
2023-03-15T20:56:46.508Z,98361.20
2023-03-15T20:59:55.055Z,98364.00
2023-03-15T21:03:03.544Z,98370.00
2023-03-15T21:06:12.624Z,98373.00
2023-03-15T21:09:20.527Z,98377.20
2023-03-15T21:12:28.451Z,98371.40
2023-03-15T21:15:36.812Z,98378.20
2023-03-15T21:18:45.362Z,98376.40
2023-03-15T21:21:53.211Z,98381.60
2023-03-15T21:25:02.410Z,98382.20
2023-03-15T21:28:10.297Z,98376.60
2023-03-15T21:31:18.373Z,98374.60
2023-03-15T21:34:26.144Z,98379.40
2023-03-15T21:37:34.847Z,98374.20
2023-03-15T21:40:43.963Z,98366.00
2023-03-15T21:43:51.825Z,98368.60
2023-03-15T21:46:59.544Z,98368.80
2023-03-15T21:50:09.267Z,98366.40
2023-03-15T21:53:17.202Z,98372.20
2023-03-15T21:56:26.347Z,98368.40
2023-03-15T21:59:34.475Z,98370.00
2023-03-15T22:02:43.402Z,98361.60
2023-03-15T22:05:51.702Z,98369.00
2023-03-15T22:08:59.798Z,98374.00
2023-03-15T22:12:08.726Z,98378.40
2023-03-15T22:15:17.487Z,98385.00
2023-03-15T22:18:28.566Z,98386.20
2023-03-15T22:21:36.557Z,98393.00
2023-03-15T22:24:44.617Z,98395.80
2023-03-15T22:27:52.858Z,98396.00
2023-03-15T22:31:01.671Z,98395.20
2023-03-15T22:34:09.971Z,98401.20
2023-03-15T22:37:17.784Z,98398.80
2023-03-15T22:40:27.960Z,98408.40
2023-03-15T22:43:36.553Z,98415.80
2023-03-15T22:46:44.505Z,98417.60
2023-03-15T22:49:54.767Z,98423.00
2023-03-15T22:53:02.949Z,98419.00
2023-03-15T22:56:10.933Z,98418.80
2023-03-15T22:59:18.998Z,98422.60
2023-03-15T23:02:26.954Z,98430.20
2023-03-15T23:05:35.306Z,98431.40
2023-03-15T23:08:43.234Z,98429.60
2023-03-15T23:11:51.175Z,98426.80
2023-03-15T23:14:59.561Z,98432.40
2023-03-15T23:18:08.047Z,98432.60
2023-03-15T23:21:17.470Z,98438.60
2023-03-15T23:24:28.055Z,98432.40
2023-03-15T23:27:35.706Z,98442.40
2023-03-15T23:30:46.057Z,98449.60
2023-03-15T23:33:54.396Z,98454.20
2023-03-15T23:37:02.965Z,98452.40
2023-03-15T23:40:15.715Z,98456.80
2023-03-15T23:43:24.164Z,98457.80
2023-03-15T23:46:36.152Z,98457.60
2023-03-15T23:49:44.991Z,98458.40
2023-03-15T23:52:53.034Z,98458.60
2023-03-15T23:56:01.579Z,98462.60
2023-03-15T23:59:09.287Z,98466.00
